Time,TemperatureF,DewpointF,PressureIn,WindDirection,WindDirectionDegrees,WindSpeedMPH,WindSpeedGustMPH,Humidity,HourlyPrecipIn,Conditions,Clouds,dailyrainin,SoftwareType,DateUTC
2013-02-01 00:05:00,19.9,14.7,29.50,WSW,252,8.0,12.0,80,0.00,,,0.00,Wunderground v.1.15,2013-02-01 05:05:00,
2013-02-01 00:10:00,19.8,14.6,29.50,WSW,243,9.0,9.0,80,0.00,,,0.00,Wunderground v.1.15,2013-02-01 05:10:00,
2013-02-01 00:15:00,19.7,14.5,29.50,SSW,198,7.0,33.0,80,0.00,,,0.00,Wunderground v.1.15,2013-02-01 05:15:00,
2013-02-01 00:20:00,19.6,14.4,29.50,West,261,5.0,33.0,80,0.00,,,0.00,Wunderground v.1.15,2013-02-01 05:20:00,
2013-02-01 00:30:00,19.5,14.0,29.50,West,267,7.0,7.0,79,0.00,,,0.00,Wunderground v.1.15,2013-02-01 05:30:00,
2013-02-01 00:40:00,19.6,13.9,29.50,WSW,255,7.0,33.0,78,0.00,,,0.00,Wunderground v.1.15,2013-02-01 05:40:00,
2013-02-01 00:50:00,19.3,13.3,29.50,West,272,7.0,7.0,77,0.00,,,0.00,Wunderground v.1.15,2013-02-01 05:50:00,
2013-02-01 01:00:00,19.3,13.3,29.50,WSW,244,9.0,33.0,77,0.00,,,0.00,Wunderground v.1.15,2013-02-01 06:00:00,
2013-02-01 01:10:00,19.2,12.6,29.50,West,264,8.0,33.0,75,0.00,,,0.00,Wunderground v.1.15,2013-02-01 06:10:00,
2013-02-01 01:15:00,19.2,12.3,29.50,West,263,7.0,33.0,74,0.00,,,0.00,Wunderground v.1.15,2013-02-01 06:15:00,
2013-02-01 01:25:00,19.1,11.6,29.50,South,191,8.0,33.0,72,0.00,,,0.00,Wunderground v.1.15,2013-02-01 06:25:00,
2013-02-01 01:35:00,19.1,10.6,29.50,South,182,9.0,9.0,69,0.00,,,0.00,Wunderground v.1.15,2013-02-01 06:35:00,
2013-02-01 01:45:00,19.4,10.9,29.51,WSW,257,8.0,33.0,69,0.00,,,0.00,Wunderground v.1.15,2013-02-01 06:45:00,
2013-02-01 01:55:00,19.3,10.8,29.51,WSW,238,9.0,33.0,69,0.00,,,0.00,Wunderground v.1.15,2013-02-01 06:55:00,
2013-02-01 02:05:00,19.0,10.5,29.51,SW,219,7.0,33.0,69,0.00,,,0.00,Wunderground v.1.15,2013-02-01 07:05:00,
2013-02-01 02:15:00,19.0,10.5,29.51,SW,235,7.0,33.0,69,0.00,,,0.00,Wunderground v.1.15,2013-02-01 07:15:00,
2013-02-01 02:20:00,19.0,10.2,29.51,WSW,256,7.0,33.0,68,0.00,,,0.00,Wunderground v.1.15,2013-02-01 07:20:00,
2013-02-01 02:30:00,19.0,10.2,29.51,West,268,8.0,8.0,68,0.00,,,0.00,Wunderground v.1.15,2013-02-01 07:30:00,
2013-02-01 02:40:00,18.8,10.0,29.51,SSE,160,7.0,7.0,68,0.00,,,0.00,Wunderground v.1.15,2013-02-01 07:40:00,
2013-02-01 02:50:00,18.8,9.6,29.51,WSW,238,8.0,8.0,67,0.00,,,0.00,Wunderground v.1.15,2013-02-01 07:50:00,
2013-02-01 03:00:00,18.8,10.0,29.51,West,261,10.0,10.0,68,0.00,,,0.00,Wunderground v.1.15,2013-02-01 08:00:00,
2013-02-01 03:05:00,18.5,9.7,29.51,WSW,258,8.0,33.0,68,0.00,,,0.00,Wunderground v.1.15,2013-02-01 08:05:00,
2013-02-01 03:15:00,18.4,9.9,29.51,West,265,10.0,10.0,69,0.00,,,0.00,Wunderground v.1.15,2013-02-01 08:15:00,
2013-02-01 03:25:00,18.2,10.1,29.51,WSW,257,7.0,33.0,70,0.00,,,0.00,Wunderground v.1.15,2013-02-01 08:25:00,
2013-02-01 03:35:00,18.1,10.0,29.52,West,260,9.0,33.0,70,0.00,,,0.00,Wunderground v.1.15,2013-02-01 08:35:00,
2013-02-01 03:45:00,18.0,9.9,29.52,WSW,258,8.0,33.0,70,0.00,,,0.00,Wunderground v.1.15,2013-02-01 08:45:00,
2013-02-01 03:55:00,18.1,9.6,29.52,WSW,257,7.0,33.0,69,0.00,,,0.00,Wunderground v.1.15,2013-02-01 08:55:00,
2013-02-01 04:05:00,18.2,9.7,29.52,WSW,250,5.0,33.0,69,0.00,,,0.00,Wunderground v.1.15,2013-02-01 09:05:00,
2013-02-01 04:10:00,18.3,9.8,29.52,West,277,6.0,33.0,69,0.00,,,0.00,Wunderground v.1.15,2013-02-01 09:10:00,
2013-02-01 04:20:00,18.2,10.1,29.53,West,267,8.0,33.0,70,0.00,,,0.00,Wunderground v.1.15,2013-02-01 09:20:00,
2013-02-01 04:30:00,18.2,10.1,29.53,West,275,7.0,33.0,70,0.00,,,0.00,Wunderground v.1.15,2013-02-01 09:30:00,
2013-02-01 04:40:00,18.2,9.7,29.53,WSW,237,9.0,9.0,69,0.00,,,0.00,Wunderground v.1.15,2013-02-01 09:40:00,
2013-02-01 04:50:00,18.0,9.9,29.54,WSW,256,6.0,33.0,70,0.00,,,0.00,Wunderground v.1.15,2013-02-01 09:50:00,
2013-02-01 05:00:00,18.0,9.9,29.53,WSW,257,7.0,33.0,70,0.00,,,0.00,Wunderground v.1.15,2013-02-01 10:00:00,
2013-02-01 05:10:00,18.1,9.6,29.54,WSW,257,10.0,33.0,69,0.00,,,0.00,Wunderground v.1.15,2013-02-01 10:10:00,
2013-02-01 05:15:00,18.0,9.9,29.54,WSW,252,10.0,33.0,70,0.00,,,0.00,Wunderground v.1.15,2013-02-01 10:15:00,
2013-02-01 05:25:00,18.0,9.9,29.54,West,265,9.0,33.0,70,0.00,,,0.00,Wunderground v.1.15,2013-02-01 10:25:00,
2013-02-01 05:35:00,18.1,10.0,29.55,West,277,11.0,33.0,70,0.00,,,0.00,Wunderground v.1.15,2013-02-01 10:35:00,
2013-02-01 05:45:00,18.1,10.3,29.55,West,273,9.0,11.0,71,0.00,,,0.00,Wunderground v.1.15,2013-02-01 10:45:00,
2013-02-01 05:55:00,18.2,10.7,29.56,West,279,9.0,33.0,72,0.00,,,0.00,Wunderground v.1.15,2013-02-01 10:55:00,
2013-02-01 06:05:00,18.1,10.6,29.57,West,265,7.0,33.0,72,0.00,,,0.00,Wunderground v.1.15,2013-02-01 11:05:00,
2013-02-01 06:15:00,18.0,10.5,29.57,West,272,9.0,9.0,72,0.00,,,0.00,Wunderground v.1.15,2013-02-01 11:15:00,
2013-02-01 06:20:00,18.0,10.5,29.57,West,269,9.0,33.0,72,0.00,,,0.00,Wunderground v.1.15,2013-02-01 11:20:00,
2013-02-01 06:30:00,17.9,11.3,29.58,West,280,10.0,10.0,75,0.00,,,0.00,Wunderground v.1.15,2013-02-01 11:30:00,
2013-02-01 06:40:00,17.9,11.6,29.58,West,274,8.0,33.0,76,0.00,,,0.00,Wunderground v.1.15,2013-02-01 11:40:00,
2013-02-01 06:50:00,17.5,12.4,29.59,West,262,9.0,9.0,80,0.00,,,0.00,Wunderground v.1.15,2013-02-01 11:50:00,
2013-02-01 07:00:00,17.2,12.6,29.60,WSW,255,8.0,33.0,82,0.00,,,0.00,Wunderground v.1.15,2013-02-01 12:00:00,
2013-02-01 07:05:00,17.0,13.0,29.61,West,264,8.0,33.0,84,0.00,,,0.00,Wunderground v.1.15,2013-02-01 12:05:00,
2013-02-01 07:15:00,16.8,13.3,29.61,WNW,285,7.0,11.0,86,0.00,,,0.00,Wunderground v.1.15,2013-02-01 12:15:00,
2013-02-01 07:25:00,16.7,13.5,29.62,WSW,256,8.0,33.0,87,0.00,,,0.00,Wunderground v.1.15,2013-02-01 12:25:00,
2013-02-01 07:30:00,16.7,13.8,29.62,West,275,7.0,7.0,88,0.00,,,0.00,Wunderground v.1.15,2013-02-01 12:30:00,
2013-02-01 07:40:00,16.6,13.7,29.63,WSW,248,6.0,33.0,88,0.00,,,0.00,Wunderground v.1.15,2013-02-01 12:40:00,
2013-02-01 07:50:00,16.7,14.0,29.64,West,264,5.0,5.0,89,0.00,,,0.00,Wunderground v.1.15,2013-02-01 12:50:00,
2013-02-01 08:00:00,16.9,14.2,29.64,WSW,255,4.0,33.0,89,0.00,,,0.00,Wunderground v.1.15,2013-02-01 13:00:00,
2013-02-01 08:10:00,16.8,14.1,29.65,WSW,256,5.0,5.0,89,0.00,,,0.00,Wunderground v.1.15,2013-02-01 13:10:00,
2013-02-01 08:20:00,16.9,14.2,29.66,WSW,258,5.0,5.0,89,0.00,,,0.00,Wunderground v.1.15,2013-02-01 13:20:00,
2013-02-01 08:30:00,16.9,14.5,29.67,West,268,4.0,33.0,90,0.00,,,0.00,Wunderground v.1.15,2013-02-01 13:30:00,
2013-02-01 08:35:00,16.9,14.5,29.67,WSW,249,5.0,33.0,90,0.00,,,0.00,Wunderground v.1.15,2013-02-01 13:35:00,
2013-02-01 08:45:00,17.0,14.6,29.67,West,273,5.0,33.0,90,0.00,,,0.00,Wunderground v.1.15,2013-02-01 13:45:00,
2013-02-01 08:55:00,17.0,14.8,29.67,West,276,5.0,33.0,91,0.00,,,0.00,Wunderground v.1.15,2013-02-01 13:55:00,
2013-02-01 09:05:00,17.2,15.0,29.68,West,267,5.0,33.0,91,0.00,,,0.00,Wunderground v.1.15,2013-02-01 14:05:00,
2013-02-01 09:15:00,16.8,14.6,29.68,NW,304,10.0,33.0,91,0.00,,,0.00,Wunderground v.1.15,2013-02-01 14:15:00,
2013-02-01 09:25:00,17.3,15.4,29.69,NW,304,6.0,33.0,92,0.00,,,0.00,Wunderground v.1.15,2013-02-01 14:25:00,
2013-02-01 09:35:00,17.4,15.5,29.69,WNW,294,6.0,8.0,92,0.00,,,0.00,Wunderground v.1.15,2013-02-01 14:35:00,
2013-02-01 09:45:00,16.8,14.9,29.69,WNW,297,6.0,7.0,92,0.00,,,0.00,Wunderground v.1.15,2013-02-01 14:45:00,
2013-02-01 09:55:00,16.9,15.0,29.70,NW,311,7.0,33.0,92,0.00,,,0.00,Wunderground v.1.15,2013-02-01 14:55:00,
2013-02-01 10:00:00,17.1,15.2,29.70,NW,305,8.0,33.0,92,0.00,,,0.00,Wunderground v.1.15,2013-02-01 15:00:00,
2013-02-01 10:10:00,16.6,14.7,29.71,WNW,289,7.0,33.0,92,0.00,,,0.00,Wunderground v.1.15,2013-02-01 15:10:00,
2013-02-01 10:20:00,16.9,15.2,29.71,West,264,8.0,8.0,93,0.00,,,0.00,Wunderground v.1.15,2013-02-01 15:20:00,
2013-02-01 10:30:00,16.9,15.0,29.71,ESE,103,7.0,7.0,92,0.00,,,0.00,Wunderground v.1.15,2013-02-01 15:30:00,
2013-02-01 10:40:00,16.1,14.2,29.72,WNW,298,9.0,33.0,92,0.00,,,0.00,Wunderground v.1.15,2013-02-01 15:40:00,
2013-02-01 10:50:00,16.0,14.1,29.72,NW,325,10.0,33.0,92,0.00,,,0.00,Wunderground v.1.15,2013-02-01 15:50:00,
2013-02-01 11:00:00,16.4,14.5,29.73,WNW,288,10.0,33.0,92,0.00,,,0.00,Wunderground v.1.15,2013-02-01 16:00:00,
2013-02-01 11:05:00,16.0,13.8,29.73,WNW,303,12.0,33.0,91,0.00,,,0.00,Wunderground v.1.15,2013-02-01 16:05:00,
2013-02-01 11:15:00,16.7,14.8,29.73,East,94,9.0,33.0,92,0.00,,,0.00,Wunderground v.1.15,2013-02-01 16:15:00,
2013-02-01 11:25:00,17.1,14.9,29.74,West,279,8.0,33.0,91,0.00,,,0.00,Wunderground v.1.15,2013-02-01 16:25:00,
2013-02-01 11:35:00,17.7,15.5,29.74,West,279,12.0,33.0,91,0.00,,,0.00,Wunderground v.1.15,2013-02-01 16:35:00,
2013-02-01 11:45:00,17.2,14.8,29.74,West,281,10.0,33.0,90,0.00,,,0.00,Wunderground v.1.15,2013-02-01 16:45:00,
2013-02-01 11:55:00,17.0,14.6,29.74,North,5,12.0,12.0,90,0.00,,,0.00,Wunderground v.1.15,2013-02-01 16:55:00,
2013-02-01 12:05:00,17.1,14.7,29.74,ENE,60,13.0,33.0,90,0.00,,,0.00,Wunderground v.1.15,2013-02-01 17:05:00,
2013-02-01 12:15:00,17.2,14.8,29.74,West,273,11.0,33.0,90,0.00,,,0.00,Wunderground v.1.15,2013-02-01 17:15:00,
2013-02-01 12:25:00,17.0,14.3,29.75,NW,305,15.0,33.0,89,0.00,,,0.00,Wunderground v.1.15,2013-02-01 17:25:00,
2013-02-01 12:30:00,17.0,14.6,29.75,WNW,292,14.0,14.0,90,0.00,,,0.00,Wunderground v.1.15,2013-02-01 17:30:00,
2013-02-01 12:40:00,17.6,14.9,29.75,WNW,286,10.0,10.0,89,0.00,,,0.00,Wunderground v.1.15,2013-02-01 17:40:00,
2013-02-01 12:50:00,18.4,15.7,29.75,West,259,10.0,33.0,89,0.00,,,0.00,Wunderground v.1.15,2013-02-01 17:50:00,
2013-02-01 13:00:00,17.5,14.6,29.76,WNW,288,12.0,33.0,88,0.00,,,0.00,Wunderground v.1.15,2013-02-01 18:00:00,
2013-02-01 13:10:00,17.7,14.8,29.76,North,5,14.0,14.0,88,0.00,,,0.00,Wunderground v.1.15,2013-02-01 18:10:00,
2013-02-01 13:20:00,17.1,13.6,29.77,West,265,13.0,13.0,86,0.00,,,0.00,Wunderground v.1.15,2013-02-01 18:20:00,
2013-02-01 13:30:00,16.7,13.2,29.77,West,279,17.0,17.0,86,0.00,,,0.00,Wunderground v.1.15,2013-02-01 18:30:00,
2013-02-01 13:40:00,17.5,14.3,29.78,NNE,22,12.0,12.0,87,0.00,,,0.00,Wunderground v.1.15,2013-02-01 18:40:00,
2013-02-01 13:50:00,16.5,12.8,29.78,WNW,282,12.0,33.0,85,0.00,,,0.00,Wunderground v.1.15,2013-02-01 18:50:00,
2013-02-01 13:55:00,17.0,13.5,29.78,WNW,288,13.0,33.0,86,0.00,,,0.00,Wunderground v.1.15,2013-02-01 18:55:00,
2013-02-01 14:05:00,16.9,12.9,29.79,West,279,16.0,33.0,84,0.00,,,0.00,Wunderground v.1.15,2013-02-01 19:05:00,
2013-02-01 14:15:00,17.2,13.2,29.80,NW,312,12.0,16.0,84,0.00,,,0.00,Wunderground v.1.15,2013-02-01 19:15:00,
2013-02-01 14:25:00,18.4,14.6,29.80,NW,314,10.0,33.0,85,0.00,,,0.00,Wunderground v.1.15,2013-02-01 19:25:00,
2013-02-01 14:35:00,19.7,14.8,29.80,WNW,283,12.0,12.0,81,0.00,,,0.00,Wunderground v.1.15,2013-02-01 19:35:00,
2013-02-01 14:45:00,20.0,15.7,29.81,WNW,288,7.0,33.0,83,0.00,,,0.00,Wunderground v.1.15,2013-02-01 19:45:00,
2013-02-01 14:55:00,18.2,14.4,29.81,WNW,293,10.0,33.0,85,0.00,,,0.00,Wunderground v.1.15,2013-02-01 19:55:00,
2013-02-01 15:05:00,17.6,12.8,29.82,WNW,294,10.0,12.0,81,0.00,,,0.00,Wunderground v.1.15,2013-02-01 20:05:00,
2013-02-01 15:15:00,18.3,14.0,29.82,East,94,9.0,33.0,83,0.00,,,0.00,Wunderground v.1.15,2013-02-01 20:15:00,
2013-02-01 15:20:00,18.4,13.8,29.83,WNW,293,8.0,33.0,82,0.00,,,0.00,Wunderground v.1.15,2013-02-01 20:20:00,
2013-02-01 15:30:00,16.7,11.3,29.83,West,271,12.0,33.0,79,0.00,,,0.00,Wunderground v.1.15,2013-02-01 20:30:00,
2013-02-01 15:40:00,16.5,10.8,29.83,NW,304,13.0,33.0,78,0.00,,,0.00,Wunderground v.1.15,2013-02-01 20:40:00,
2013-02-01 15:50:00,16.5,10.8,29.84,WNW,294,14.0,14.0,78,0.00,,,0.00,Wunderground v.1.15,2013-02-01 20:50:00,
2013-02-01 16:00:00,16.1,11.6,29.84,NW,309,13.0,13.0,82,0.00,,,0.00,Wunderground v.1.15,2013-02-01 21:00:00,
2013-02-01 16:10:00,15.6,10.8,29.84,NW,311,10.0,33.0,81,0.00,,,0.00,Wunderground v.1.15,2013-02-01 21:10:00,
2013-02-01 16:20:00,15.3,10.8,29.85,WNW,283,10.0,33.0,82,0.00,,,0.00,Wunderground v.1.15,2013-02-01 21:20:00,
2013-02-01 16:25:00,15.4,11.2,29.85,WNW,298,9.0,33.0,83,0.00,,,0.00,Wunderground v.1.15,2013-02-01 21:25:00,
2013-02-01 16:35:00,15.9,11.9,29.86,West,279,13.0,33.0,84,0.00,,,0.00,Wunderground v.1.15,2013-02-01 21:35:00,
2013-02-01 16:45:00,15.7,11.7,29.86,WNW,291,12.0,33.0,84,0.00,,,0.00,Wunderground v.1.15,2013-02-01 21:45:00,
2013-02-01 16:55:00,16.4,13.2,29.86,WNW,296,11.0,33.0,87,0.00,,,0.00,Wunderground v.1.15,2013-02-01 21:55:00,
2013-02-01 17:05:00,15.8,12.9,29.86,West,277,12.0,33.0,88,0.00,,,0.00,Wunderground v.1.15,2013-02-01 22:05:00,
2013-02-01 17:15:00,15.2,12.8,29.87,WNW,295,11.0,33.0,90,0.00,,,0.00,Wunderground v.1.15,2013-02-01 22:15:00,
2013-02-01 17:25:00,15.0,12.8,29.88,WNW,303,9.0,33.0,91,0.00,,,0.00,Wunderground v.1.15,2013-02-01 22:25:00,
2013-02-01 17:35:00,14.9,13.0,29.88,WNW,284,7.0,33.0,92,0.00,,,0.00,Wunderground v.1.15,2013-02-01 22:35:00,
2013-02-01 17:45:00,15.2,13.3,29.89,WNW,290,7.0,33.0,92,0.00,,,0.00,Wunderground v.1.15,2013-02-01 22:45:00,
2013-02-01 17:50:00,15.3,13.1,29.89,West,259,9.0,33.0,91,0.00,,,0.00,Wunderground v.1.15,2013-02-01 22:50:00,
2013-02-01 18:00:00,15.3,13.1,29.89,WNW,301,11.0,11.0,91,0.00,,,0.00,Wunderground v.1.15,2013-02-01 23:00:00,
2013-02-01 18:10:00,14.8,12.4,29.90,West,264,10.0,33.0,90,0.00,,,0.00,Wunderground v.1.15,2013-02-01 23:10:00,
2013-02-01 18:20:00,14.7,12.0,29.90,West,271,8.0,8.0,89,0.00,,,0.00,Wunderground v.1.15,2013-02-01 23:20:00,
2013-02-01 18:30:00,14.9,12.0,29.91,West,271,8.0,33.0,88,0.00,,,0.00,Wunderground v.1.15,2013-02-01 23:30:00,
2013-02-01 18:40:00,15.1,11.9,29.91,WNW,298,12.0,33.0,87,0.00,,,0.00,Wunderground v.1.15,2013-02-01 23:40:00,
2013-02-01 18:45:00,15.2,12.0,29.92,West,281,12.0,33.0,87,0.00,,,0.00,Wunderground v.1.15,2013-02-01 23:45:00,
2013-02-01 18:55:00,14.9,11.5,29.92,West,272,11.0,33.0,86,0.00,,,0.00,Wunderground v.1.15,2013-02-01 23:55:00,
2013-02-01 19:05:00,14.6,11.2,29.92,West,266,10.0,33.0,86,0.00,,,0.00,Wunderground v.1.15,2013-02-02 00:05:00,
2013-02-01 19:15:00,14.9,10.9,29.93,West,267,12.0,33.0,84,0.00,,,0.00,Wunderground v.1.15,2013-02-02 00:15:00,
2013-02-01 19:20:00,14.8,10.8,29.93,West,265,12.0,12.0,84,0.00,,,0.00,Wunderground v.1.15,2013-02-02 00:20:00,
2013-02-01 19:30:00,14.6,10.9,29.94,WSW,250,13.0,13.0,85,0.00,,,0.00,Wunderground v.1.15,2013-02-02 00:30:00,
2013-02-01 19:40:00,14.5,11.3,29.93,West,274,10.0,33.0,87,0.00,,,0.00,Wunderground v.1.15,2013-02-02 00:40:00,
2013-02-01 19:45:00,14.5,11.3,29.94,West,262,9.0,33.0,87,0.00,,,0.00,Wunderground v.1.15,2013-02-02 00:45:00,
2013-02-01 19:55:00,14.6,11.7,29.95,West,271,10.0,33.0,88,0.00,,,0.00,Wunderground v.1.15,2013-02-02 00:55:00,
2013-02-01 20:05:00,14.6,11.7,29.95,West,271,9.0,33.0,88,0.00,,,0.00,Wunderground v.1.15,2013-02-02 01:05:00,
2013-02-01 20:15:00,14.5,11.6,29.95,West,264,9.0,33.0,88,0.00,,,0.00,Wunderground v.1.15,2013-02-02 01:15:00,
2013-02-01 20:25:00,14.5,11.6,29.96,West,273,10.0,33.0,88,0.00,,,0.00,Wunderground v.1.15,2013-02-02 01:25:00,
2013-02-01 20:35:00,14.4,11.5,29.96,West,265,9.0,10.0,88,0.00,,,0.00,Wunderground v.1.15,2013-02-02 01:35:00,
2013-02-01 20:45:00,14.4,11.8,29.96,West,277,8.0,33.0,89,0.00,,,0.00,Wunderground v.1.15,2013-02-02 01:45:00,
2013-02-01 20:55:00,14.8,12.1,29.96,WNW,283,7.0,33.0,89,0.00,,,0.00,Wunderground v.1.15,2013-02-02 01:55:00,
2013-02-01 21:05:00,14.8,12.1,29.97,West,268,7.0,33.0,89,0.00,,,0.00,Wunderground v.1.15,2013-02-02 02:05:00,
2013-02-01 21:10:00,14.8,12.1,29.97,West,281,6.0,6.0,89,0.00,,,0.00,Wunderground v.1.15,2013-02-02 02:10:00,
2013-02-01 21:20:00,15.2,12.8,29.97,WNW,291,5.0,33.0,90,0.00,,,0.00,Wunderground v.1.15,2013-02-02 02:20:00,
2013-02-01 21:30:00,15.2,12.8,29.97,WNW,298,5.0,33.0,90,0.00,,,0.00,Wunderground v.1.15,2013-02-02 02:30:00,
2013-02-01 21:40:00,15.1,12.7,29.98,NW,311,5.0,33.0,90,0.00,,,0.00,Wunderground v.1.15,2013-02-02 02:40:00,
2013-02-01 21:50:00,15.2,12.8,29.98,West,281,6.0,33.0,90,0.00,,,0.00,Wunderground v.1.15,2013-02-02 02:50:00,
2013-02-01 21:55:00,15.4,13.0,29.98,West,278,7.0,33.0,90,0.00,,,0.00,Wunderground v.1.15,2013-02-02 02:55:00,
2013-02-01 22:05:00,15.3,13.1,29.98,WNW,296,7.0,33.0,91,0.00,,,0.00,Wunderground v.1.15,2013-02-02 03:05:00,
2013-02-01 22:15:00,15.5,13.3,29.99,WNW,298,4.0,33.0,91,0.00,,,0.00,Wunderground v.1.15,2013-02-02 03:15:00,
2013-02-01 22:20:00,15.5,13.3,29.99,WNW,295,2.0,33.0,91,0.00,,,0.00,Wunderground v.1.15,2013-02-02 03:20:00,
2013-02-01 22:30:00,15.2,13.0,29.99,WNW,288,4.0,33.0,91,0.00,,,0.00,Wunderground v.1.15,2013-02-02 03:30:00,
2013-02-01 22:35:00,14.9,12.7,29.99,NW,308,9.0,33.0,91,0.00,,,0.00,Wunderground v.1.15,2013-02-02 03:35:00,
2013-02-01 22:40:00,14.4,12.0,30.00,NW,304,12.0,12.0,90,0.00,,,0.00,Wunderground v.1.15,2013-02-02 03:40:00,
2013-02-01 22:49:00,14.5,12.4,29.99,NW,309,8.0,33.0,91,0.00,,,0.00,Wunderground v.1.15,2013-02-02 03:49:00,
2013-02-01 22:55:00,14.2,12.1,30.00,WNW,298,9.0,33.0,91,0.00,,,0.00,Wunderground v.1.15,2013-02-02 03:55:00,
2013-02-01 23:05:00,14.2,12.1,30.01,NNW,327,11.0,33.0,91,0.00,,,0.00,Wunderground v.1.15,2013-02-02 04:05:00,
2013-02-01 23:15:00,14.0,11.9,30.01,WNW,293,10.0,33.0,91,0.00,,,0.00,Wunderground v.1.15,2013-02-02 04:15:00,
2013-02-01 23:25:00,14.2,12.1,30.01,WNW,294,8.0,33.0,91,0.00,,,0.00,Wunderground v.1.15,2013-02-02 04:25:00,
2013-02-01 23:34:00,14.2,12.1,30.02,NW,321,9.0,33.0,91,0.00,,,0.00,Wunderground v.1.15,2013-02-02 04:34:00,
2013-02-01 23:40:00,14.1,12.0,30.02,WNW,294,8.0,8.0,91,0.00,,,0.00,Wunderground v.1.15,2013-02-02 04:40:00,
2013-02-01 23:50:00,13.7,11.6,30.02,NNW,329,8.0,8.0,91,0.00,,,0.00,Wunderground v.1.15,2013-02-02 04:50:00,